createdAt,value
2022-12-14T00:01:37.268Z,26.88
2022-12-14T00:04:04.398Z,26.88
2022-12-14T00:06:32.701Z,25.60
2022-12-14T00:09:01.972Z,24.03
2022-12-14T00:13:59.370Z,25.70
2022-12-14T00:16:28.638Z,24.70
2022-12-14T00:18:57.025Z,28.90
2022-12-14T00:21:23.949Z,25.93
2022-12-14T00:23:52.132Z,28.30
2022-12-14T00:26:31.273Z,26.88
2022-12-14T00:28:59.440Z,28.80
2022-12-14T00:31:26.337Z,27.95
2022-12-14T00:33:53.127Z,27.05
2022-12-14T00:36:20.571Z,25.80
2022-12-14T00:38:47.417Z,26.80
2022-12-14T00:41:14.083Z,25.33
2022-12-14T00:43:40.986Z,26.63
2022-12-14T00:46:08.147Z,26.00
2022-12-14T00:48:35.408Z,26.48
2022-12-14T00:51:02.422Z,26.63
2022-12-14T00:53:29.211Z,26.13
2022-12-14T00:55:55.936Z,26.75
2022-12-14T00:58:27.003Z,27.30
2022-12-14T01:01:05.601Z,26.88
2022-12-14T01:03:33.376Z,25.90
2022-12-14T01:06:00.722Z,25.30
2022-12-14T01:08:35.527Z,24.95
2022-12-14T01:11:07.245Z,25.77
2022-12-14T01:13:34.556Z,28.08
2022-12-14T01:16:06.637Z,27.08
2022-12-14T01:18:38.262Z,26.00
2022-12-14T01:21:22.810Z,27.75
2022-12-14T01:24:02.294Z,25.70
2022-12-14T01:26:30.449Z,25.92
2022-12-14T01:28:59.139Z,26.33
2022-12-14T01:31:32.083Z,25.92
2022-12-14T01:33:59.152Z,23.48
2022-12-14T01:36:28.777Z,25.27
2022-12-14T01:39:04.103Z,27.20
2022-12-14T01:41:39.771Z,25.92
2022-12-14T01:44:09.288Z,25.30
2022-12-14T01:46:44.512Z,25.60
2022-12-14T01:49:16.465Z,25.23
2022-12-14T01:51:50.052Z,26.52
2022-12-14T01:54:16.877Z,28.20
2022-12-14T01:56:45.858Z,26.67
2022-12-14T01:59:21.957Z,27.88
2022-12-14T02:01:49.237Z,27.67
2022-12-14T02:04:18.205Z,27.75
2022-12-14T02:06:49.049Z,27.38
2022-12-14T02:09:20.535Z,26.77
2022-12-14T02:11:55.090Z,26.52
2022-12-14T02:14:22.275Z,27.48
2022-12-14T02:16:55.107Z,24.95
2022-12-14T02:19:22.009Z,27.52
2022-12-14T02:22:08.091Z,27.52
2022-12-14T02:24:52.761Z,27.02
2022-12-14T02:27:34.756Z,27.25
2022-12-14T02:30:14.733Z,26.55
2022-12-14T02:32:47.817Z,26.02
2022-12-14T02:35:35.659Z,27.08
2022-12-14T02:38:20.082Z,26.50
2022-12-14T02:41:23.739Z,25.90
2022-12-14T02:44:00.938Z,23.98
2022-12-14T02:46:50.342Z,24.83
2022-12-14T02:49:52.552Z,26.02
2022-12-14T02:52:37.503Z,26.98
2022-12-14T02:55:18.374Z,26.63
2022-12-14T02:57:53.518Z,26.42
2022-12-14T03:00:20.419Z,23.52
2022-12-14T03:02:49.254Z,27.45
2022-12-14T03:05:16.208Z,27.02
2022-12-14T03:08:09.044Z,28.05
2022-12-14T03:10:55.345Z,27.27
2022-12-14T03:13:36.944Z,26.23
2022-12-14T03:16:03.611Z,25.35
2022-12-14T03:18:36.255Z,25.65
2022-12-14T03:21:07.887Z,26.27
2022-12-14T03:23:55.633Z,26.05
2022-12-14T03:26:26.532Z,25.42
2022-12-14T03:29:19.989Z,26.58
2022-12-14T03:32:10.456Z,25.25
2022-12-14T03:34:53.259Z,27.90
2022-12-14T03:37:39.760Z,28.17
2022-12-14T03:40:13.469Z,28.30
2022-12-14T03:42:56.703Z,28.10
2022-12-14T03:45:42.549Z,28.27
2022-12-14T03:48:30.752Z,28.55
2022-12-14T03:51:14.344Z,25.33
2022-12-14T03:53:50.095Z,27.27
2022-12-14T03:56:39.416Z,29.23
2022-12-14T03:59:18.123Z,25.50
2022-12-14T04:01:57.479Z,26.63
2022-12-14T04:04:36.272Z,26.25
2022-12-14T04:07:18.062Z,26.75
2022-12-14T04:09:54.527Z,27.73
2022-12-14T04:12:53.678Z,27.60
2022-12-14T04:15:53.741Z,27.85
2022-12-14T04:18:46.690Z,28.40
2022-12-14T04:21:32.105Z,26.40
2022-12-14T04:24:22.283Z,27.83
2022-12-14T04:27:00.886Z,27.42
2022-12-14T04:29:51.218Z,26.88
2022-12-14T04:32:26.566Z,27.95
2022-12-14T04:35:16.418Z,24.95
2022-12-14T04:37:48.856Z,25.60
2022-12-14T04:40:21.882Z,23.83
2022-12-14T04:42:55.853Z,22.00
2022-12-14T04:45:30.925Z,25.73
2022-12-14T04:48:08.282Z,24.10
2022-12-14T04:50:40.368Z,25.90
2022-12-14T04:53:16.383Z,25.25
2022-12-14T04:55:58.216Z,23.20
2022-12-14T04:58:28.134Z,24.30
2022-12-14T05:01:06.823Z,24.52
2022-12-14T05:03:36.145Z,23.77
2022-12-14T05:06:05.589Z,23.65
2022-12-14T05:08:47.318Z,24.45
2022-12-14T05:14:22.323Z,24.73
2022-12-14T05:16:49.694Z,24.75
2022-12-14T05:19:16.818Z,25.33
2022-12-14T05:21:49.307Z,25.60
2022-12-14T05:24:17.259Z,25.50
2022-12-14T05:26:44.412Z,26.73
2022-12-14T05:29:11.531Z,26.73
2022-12-14T05:31:38.569Z,25.90
2022-12-14T05:34:05.376Z,25.83
2022-12-14T05:36:32.006Z,25.15
2022-12-14T05:38:58.683Z,25.33
2022-12-14T05:41:25.382Z,27.00
2022-12-14T05:43:52.427Z,25.95
2022-12-14T05:46:19.143Z,26.85
2022-12-14T05:48:49.212Z,27.08
2022-12-14T05:51:16.482Z,26.95
2022-12-14T05:53:43.490Z,27.48
2022-12-14T05:56:11.861Z,29.10
2022-12-14T05:58:39.244Z,28.80
2022-12-14T06:01:13.957Z,28.38
2022-12-14T06:03:43.965Z,29.10
2022-12-14T06:06:13.168Z,29.73
2022-12-14T06:11:10.323Z,27.23
2022-12-14T06:13:38.145Z,29.80
2022-12-14T06:16:25.457Z,30.58
2022-12-14T06:18:57.563Z,28.40
2022-12-14T06:21:27.404Z,30.63
2022-12-14T06:23:55.705Z,30.23
2022-12-14T06:26:23.103Z,30.80
2022-12-14T06:28:50.137Z,30.02
2022-12-14T06:31:38.466Z,30.83
2022-12-14T06:34:05.509Z,30.88
2022-12-14T06:36:37.447Z,31.00
2022-12-14T06:39:06.995Z,25.38
2022-12-14T06:41:33.818Z,30.60
2022-12-14T06:44:08.312Z,31.15
2022-12-14T06:46:36.324Z,29.45
2022-12-14T06:49:05.031Z,28.80
2022-12-14T06:51:32.324Z,28.83
2022-12-14T06:53:59.112Z,29.30
2022-12-14T06:56:28.359Z,25.20
2022-12-14T06:58:55.502Z,28.27
2022-12-14T07:01:24.460Z,28.23
2022-12-14T07:03:56.319Z,27.88
2022-12-14T07:06:24.811Z,28.20
2022-12-14T07:08:56.183Z,28.98
2022-12-14T07:11:23.032Z,27.02
2022-12-14T07:13:49.970Z,26.45
2022-12-14T07:16:19.897Z,28.80
2022-12-14T07:18:47.678Z,26.42
2022-12-14T07:21:16.957Z,26.00
2022-12-14T07:23:45.728Z,26.73
2022-12-14T07:26:21.821Z,25.30
2022-12-14T07:28:49.211Z,24.40
2022-12-14T07:31:24.587Z,24.90
2022-12-14T07:33:56.921Z,26.27
2022-12-14T07:36:24.723Z,25.33
2022-12-14T07:38:52.504Z,24.80
2022-12-14T07:41:23.111Z,26.08
2022-12-14T07:43:51.624Z,27.10
2022-12-14T07:46:21.526Z,26.77
2022-12-14T07:48:51.370Z,23.77
2022-12-14T07:51:21.352Z,24.95
2022-12-14T07:53:48.840Z,25.55
2022-12-14T07:56:20.990Z,25.58
2022-12-14T07:58:48.325Z,26.75
2022-12-14T08:01:15.142Z,27.75
2022-12-14T08:03:45.650Z,25.10
2022-12-14T08:06:14.110Z,25.10
2022-12-14T08:08:41.786Z,25.98
2022-12-14T08:11:10.175Z,24.42
2022-12-14T08:13:39.042Z,25.10
2022-12-14T08:16:08.360Z,25.17
2022-12-14T08:18:35.899Z,25.70
2022-12-14T08:21:04.863Z,25.98
2022-12-14T08:23:32.694Z,23.83
2022-12-14T08:26:01.396Z,25.60
2022-12-14T08:28:29.782Z,26.47
2022-12-14T08:30:57.542Z,25.73
2022-12-14T08:33:24.811Z,25.70
2022-12-14T08:35:51.716Z,24.52
2022-12-14T08:38:38.796Z,25.67
2022-12-14T08:41:08.226Z,24.20
2022-12-14T08:43:35.738Z,24.45
2022-12-14T08:46:03.778Z,23.92
2022-12-14T08:48:30.969Z,23.63
2022-12-14T08:51:05.493Z,22.67
2022-12-14T08:53:32.848Z,23.63
2022-12-14T08:56:08.349Z,24.67
2022-12-14T08:58:35.426Z,22.15
2022-12-14T09:01:07.464Z,37.05
2022-12-14T09:03:34.353Z,25.35
2022-12-14T09:06:04.013Z,24.63
2022-12-14T09:08:31.513Z,22.70
2022-12-14T09:10:58.438Z,36.00
2022-12-14T09:13:25.344Z,24.23
2022-12-14T09:15:59.293Z,24.30
2022-12-14T09:18:26.927Z,22.85
2022-12-14T09:20:57.408Z,24.40
2022-12-14T09:23:25.724Z,25.27
2022-12-14T09:26:22.521Z,24.27
2022-12-14T09:28:54.269Z,23.65
2022-12-14T09:31:23.852Z,23.55
2022-12-14T09:33:51.081Z,22.75
2022-12-14T09:36:21.044Z,22.50
2022-12-14T09:38:51.754Z,24.63
2022-12-14T09:41:29.258Z,23.77
2022-12-14T09:44:18.199Z,23.95
2022-12-14T09:47:10.888Z,23.50
2022-12-14T09:49:46.668Z,23.85
2022-12-14T09:52:18.687Z,23.33
2022-12-14T09:54:49.712Z,23.10
2022-12-14T09:57:27.667Z,23.17
2022-12-14T09:59:55.090Z,20.80
2022-12-14T10:02:46.493Z,21.58
2022-12-14T10:05:32.210Z,22.13
2022-12-14T10:08:35.775Z,21.65
2022-12-14T10:11:11.718Z,19.83
2022-12-14T10:13:47.391Z,20.08
2022-12-14T10:16:32.110Z,18.95
2022-12-14T10:19:10.866Z,20.30
2022-12-14T10:21:56.907Z,19.45
2022-12-14T10:24:51.769Z,21.23
2022-12-14T10:27:24.313Z,21.08
2022-12-14T10:30:04.047Z,20.65
2022-12-14T10:32:39.721Z,20.85
2022-12-14T10:35:14.825Z,19.98
2022-12-14T10:37:58.510Z,20.35
2022-12-14T10:40:34.832Z,21.70
2022-12-14T10:43:04.883Z,22.40
2022-12-14T10:45:47.221Z,21.42
2022-12-14T10:48:25.551Z,19.42
2022-12-14T10:51:10.744Z,19.65
2022-12-14T10:53:58.929Z,18.63
2022-12-14T10:56:33.486Z,20.80
2022-12-14T10:59:18.558Z,19.60
2022-12-14T11:01:48.242Z,18.80
2022-12-14T11:04:47.331Z,19.67
2022-12-14T11:07:15.963Z,18.77
2022-12-14T11:09:43.603Z,18.83
2022-12-14T11:12:13.593Z,19.80
2022-12-14T11:15:02.273Z,19.92
2022-12-14T11:17:34.146Z,18.98
2022-12-14T11:20:22.680Z,17.45
2022-12-14T11:23:08.484Z,20.10
2022-12-14T11:25:41.680Z,19.13
2022-12-14T11:28:36.550Z,19.67
2022-12-14T11:31:13.314Z,18.67
2022-12-14T11:33:46.002Z,18.50
2022-12-14T11:36:24.877Z,18.42
2022-12-14T11:39:00.939Z,17.90
2022-12-14T11:41:36.800Z,18.38
2022-12-14T11:44:07.129Z,17.90
2022-12-14T11:46:46.111Z,18.63
2022-12-14T11:49:39.200Z,18.10
2022-12-14T11:52:05.910Z,18.73
2022-12-14T11:54:34.218Z,18.73
2022-12-14T11:57:12.826Z,19.35
2022-12-14T12:00:02.769Z,18.88
2022-12-14T12:02:37.058Z,19.48
2022-12-14T12:05:16.148Z,17.45
2022-12-14T12:07:52.243Z,18.55
2022-12-14T12:10:40.365Z,18.45
2022-12-14T12:13:26.658Z,18.52
2022-12-14T12:16:19.853Z,18.23
2022-12-14T12:18:48.638Z,18.38
2022-12-14T12:21:18.095Z,17.13
2022-12-14T12:23:57.914Z,16.33
2022-12-14T12:26:43.577Z,16.23
2022-12-14T12:29:24.165Z,17.70
2022-12-14T12:31:50.713Z,17.23
2022-12-14T12:34:21.785Z,16.77
2022-12-14T12:37:17.484Z,16.85
2022-12-14T12:39:40.739Z,17.83
2022-12-14T12:42:42.434Z,16.92
2022-12-14T12:45:14.999Z,18.65
2022-12-14T12:47:48.345Z,17.17
2022-12-14T12:50:22.744Z,17.13
2022-12-14T12:53:09.582Z,17.38
2022-12-14T12:55:42.476Z,15.13
2022-12-14T12:58:21.099Z,16.30
2022-12-14T13:00:51.677Z,17.08
2022-12-14T13:03:51.481Z,16.83
2022-12-14T13:06:27.830Z,18.08
2022-12-14T13:09:11.959Z,17.80
2022-12-14T13:11:40.278Z,18.33
2022-12-14T13:14:26.358Z,17.23
2022-12-14T13:16:54.956Z,19.50
2022-12-14T13:19:54.887Z,18.60
2022-12-14T13:22:33.822Z,17.23
2022-12-14T13:25:14.371Z,19.02
2022-12-14T13:28:01.070Z,17.55
2022-12-14T13:30:46.256Z,18.52
2022-12-14T13:33:54.452Z,20.73
2022-12-14T13:36:42.528Z,19.77
2022-12-14T13:39:26.294Z,20.52
2022-12-14T13:42:16.214Z,19.17
2022-12-14T13:45:01.316Z,19.48
2022-12-14T13:47:33.568Z,19.35
2022-12-14T13:52:50.577Z,20.00
2022-12-14T13:55:32.490Z,19.67
2022-12-14T13:58:34.025Z,19.33
2022-12-14T14:01:09.346Z,19.60
2022-12-14T14:03:36.142Z,19.48
2022-12-14T14:06:17.523Z,19.83
2022-12-14T14:08:47.109Z,20.05
2022-12-14T14:11:38.745Z,19.08
2022-12-14T14:14:36.342Z,20.05
2022-12-14T14:17:12.078Z,21.25
2022-12-14T14:19:41.359Z,19.58
2022-12-14T14:24:59.819Z,19.42
2022-12-14T14:27:37.089Z,20.88
2022-12-14T14:30:23.496Z,20.15
2022-12-14T14:32:53.989Z,20.05
2022-12-14T14:35:23.877Z,19.27
2022-12-14T14:38:00.205Z,20.35
2022-12-14T14:40:51.326Z,19.48
2022-12-14T14:43:35.054Z,19.67
2022-12-14T14:46:05.717Z,21.10
2022-12-14T14:48:41.395Z,20.38
2022-12-14T14:51:10.835Z,21.08
2022-12-14T14:53:39.336Z,21.40
2022-12-14T14:56:12.350Z,22.07
2022-12-14T14:58:41.947Z,21.50
2022-12-14T15:01:25.029Z,21.23
2022-12-14T15:03:51.895Z,22.33
2022-12-14T15:06:39.935Z,21.05
2022-12-14T15:09:09.356Z,21.50
2022-12-14T15:11:57.662Z,23.15
2022-12-14T15:14:43.312Z,20.80
2022-12-14T15:17:20.185Z,20.80
2022-12-14T15:19:55.248Z,20.08
2022-12-14T15:22:25.131Z,21.80
2022-12-14T15:24:55.880Z,23.05
2022-12-14T15:27:31.860Z,23.20
2022-12-14T15:30:19.198Z,22.25
2022-12-14T15:33:06.823Z,21.13
2022-12-14T15:35:37.346Z,20.55
2022-12-14T15:38:18.782Z,21.17
2022-12-14T15:40:56.063Z,20.58
2022-12-14T15:43:23.859Z,20.92
2022-12-14T15:45:54.133Z,21.42
2022-12-14T15:48:34.569Z,21.65
2022-12-14T15:51:07.382Z,19.88
2022-12-14T15:53:35.584Z,20.38
2022-12-14T15:56:27.093Z,21.30
2022-12-14T15:58:54.182Z,21.63
2022-12-14T16:01:26.124Z,21.73
2022-12-14T16:03:55.375Z,22.33
2022-12-14T16:06:26.476Z,29.92
2022-12-14T16:08:56.231Z,40.70
2022-12-14T16:11:28.643Z,23.30
2022-12-14T16:13:56.843Z,24.90
2022-12-14T16:16:23.840Z,25.23
2022-12-14T16:18:51.527Z,21.77
2022-12-14T16:21:35.649Z,22.02
2022-12-14T16:24:22.382Z,20.20
2022-12-14T16:26:58.248Z,21.45
2022-12-14T16:29:28.837Z,20.92
2022-12-14T16:32:14.714Z,20.48
2022-12-14T16:34:47.623Z,20.98
2022-12-14T16:37:33.901Z,20.95
2022-12-14T16:40:01.008Z,20.67
2022-12-14T16:42:28.097Z,21.75
2022-12-14T16:44:54.897Z,23.40
2022-12-14T16:47:21.590Z,25.35
2022-12-14T16:49:48.139Z,24.95
2022-12-14T16:52:20.775Z,28.93
2022-12-14T16:55:15.028Z,27.90
2022-12-14T16:57:56.108Z,28.92
2022-12-14T17:00:34.001Z,28.40
2022-12-14T17:03:23.165Z,29.67
2022-12-14T17:05:56.729Z,27.45
2022-12-14T17:08:23.281Z,31.02
2022-12-14T17:10:50.925Z,29.73
2022-12-14T17:13:17.806Z,28.35
2022-12-14T17:16:04.685Z,25.55
2022-12-14T17:18:40.470Z,24.23
2022-12-14T17:21:08.928Z,27.98
2022-12-14T17:23:40.071Z,27.90
2022-12-14T17:26:06.691Z,26.30
2022-12-14T17:28:34.707Z,28.27
2022-12-14T17:31:03.112Z,25.73
2022-12-14T17:33:32.119Z,25.93
2022-12-14T17:35:59.338Z,24.65
2022-12-14T17:38:25.992Z,36.03
2022-12-14T17:40:53.977Z,38.97
2022-12-14T17:43:25.605Z,40.92
2022-12-14T17:45:53.027Z,34.97
2022-12-14T17:48:20.981Z,30.67
2022-12-14T17:50:49.919Z,29.63
2022-12-14T17:53:21.363Z,26.95
2022-12-14T17:55:48.231Z,25.95
2022-12-14T17:58:14.823Z,24.73
2022-12-14T18:01:00.104Z,24.60
2022-12-14T18:03:29.915Z,26.23
2022-12-14T18:05:58.228Z,25.27
2022-12-14T18:08:26.586Z,24.77
2022-12-14T18:11:10.248Z,24.23
2022-12-14T18:13:40.434Z,23.52
2022-12-14T18:16:10.176Z,26.40
2022-12-14T18:18:36.784Z,25.02
2022-12-14T18:21:04.943Z,27.25
2022-12-14T18:23:32.197Z,26.45
2022-12-14T18:26:00.421Z,25.95
2022-12-14T18:28:27.097Z,25.27
2022-12-14T18:31:02.293Z,23.95
2022-12-14T18:33:29.839Z,26.52
2022-12-14T18:35:57.721Z,25.15
2022-12-14T18:38:24.615Z,27.83
2022-12-14T18:40:53.851Z,26.13
2022-12-14T18:45:53.186Z,26.17
2022-12-14T18:48:21.010Z,26.17
2022-12-14T18:50:49.803Z,28.15
2022-12-14T18:53:18.880Z,29.08
2022-12-14T18:55:46.211Z,29.08
2022-12-14T18:58:21.003Z,26.83
2022-12-14T19:00:50.539Z,27.00
2022-12-14T19:03:17.787Z,28.17
2022-12-14T19:05:45.480Z,26.60
2022-12-14T19:08:12.876Z,26.83
2022-12-14T19:10:42.444Z,24.58
2022-12-14T19:13:14.714Z,24.70
2022-12-14T19:15:41.392Z,25.00
2022-12-14T19:18:08.080Z,27.77
2022-12-14T19:20:34.813Z,27.55
2022-12-14T19:23:02.503Z,28.42
2022-12-14T19:25:29.565Z,28.08
2022-12-14T19:28:30.873Z,27.00
2022-12-14T19:30:44.543Z,25.80
2022-12-14T19:33:11.558Z,26.87
2022-12-14T19:35:42.403Z,25.55
2022-12-14T19:38:13.512Z,25.40
2022-12-14T19:40:40.893Z,27.63
2022-12-14T19:43:07.607Z,28.90
2022-12-14T19:45:35.083Z,32.88
2022-12-14T19:48:01.791Z,31.85
2022-12-14T19:50:28.471Z,32.70
2022-12-14T19:52:55.155Z,31.73
2022-12-14T19:55:21.875Z,31.67
2022-12-14T19:57:48.549Z,30.83
2022-12-14T20:00:15.403Z,31.40
2022-12-14T20:02:42.201Z,28.67
2022-12-14T20:05:09.404Z,27.98
2022-12-14T20:07:41.844Z,26.60
2022-12-14T20:10:10.297Z,28.73
2022-12-14T20:12:37.372Z,29.05
2022-12-14T20:15:04.407Z,28.73
2022-12-14T20:17:31.038Z,27.17
2022-12-14T20:19:57.812Z,30.17
2022-12-14T20:22:24.471Z,26.85
2022-12-14T20:24:51.083Z,27.75
2022-12-14T20:27:17.814Z,30.42
2022-12-14T20:29:44.453Z,29.40
2022-12-14T20:32:11.231Z,30.40
2022-12-14T20:34:39.192Z,28.48
2022-12-14T20:37:06.622Z,28.90
2022-12-14T20:39:33.218Z,27.15
2022-12-14T20:41:59.832Z,29.20
2022-12-14T20:44:26.589Z,29.05
2022-12-14T20:46:53.416Z,30.27
2022-12-14T20:49:21.456Z,31.77
2022-12-14T20:51:49.004Z,33.00
2022-12-14T20:54:19.055Z,34.08
2022-12-14T20:56:49.204Z,33.35
2022-12-14T20:59:16.414Z,33.08
2022-12-14T21:01:43.339Z,33.05
2022-12-14T21:04:10.310Z,31.80
2022-12-14T21:06:39.540Z,29.77
2022-12-14T21:12:08.803Z,29.05
2022-12-14T21:14:43.493Z,30.90
2022-12-14T21:17:11.044Z,32.65
2022-12-14T21:19:37.766Z,39.70
2022-12-14T21:22:06.210Z,30.15
2022-12-14T21:27:26.047Z,27.20
2022-12-14T21:29:53.477Z,27.98
2022-12-14T21:32:21.946Z,28.13
2022-12-14T21:34:49.084Z,28.73
2022-12-14T21:37:16.107Z,27.42
2022-12-14T21:39:46.347Z,28.20
2022-12-14T21:42:20.645Z,27.73
2022-12-14T21:44:49.511Z,31.20
2022-12-14T21:47:19.430Z,30.40
2022-12-14T21:49:46.604Z,32.25
2022-12-14T21:52:16.363Z,30.20
2022-12-14T21:54:43.575Z,30.55
2022-12-14T21:57:36.626Z,28.73
2022-12-14T22:00:05.740Z,26.88
2022-12-14T22:04:59.337Z,24.75
2022-12-14T22:07:30.426Z,25.10
2022-12-14T22:09:57.181Z,26.05
2022-12-14T22:12:23.866Z,25.23
2022-12-14T22:14:51.117Z,24.00
2022-12-14T22:17:17.863Z,25.77
2022-12-14T22:19:44.606Z,25.27
2022-12-14T22:22:16.524Z,25.73
2022-12-14T22:24:44.130Z,25.20
2022-12-14T22:27:12.150Z,25.50
2022-12-14T22:29:39.402Z,23.55
2022-12-14T22:32:07.223Z,24.58
2022-12-14T22:34:34.284Z,23.10
2022-12-14T22:37:01.108Z,23.10
2022-12-14T22:39:27.878Z,22.17
2022-12-14T22:41:54.698Z,23.13
2022-12-14T22:44:21.460Z,23.23
2022-12-14T22:46:48.130Z,22.67
2022-12-14T22:49:17.904Z,22.85
2022-12-14T22:51:45.568Z,23.80
2022-12-14T22:54:23.927Z,22.08
2022-12-14T22:57:02.450Z,21.27
2022-12-14T22:59:39.057Z,23.85
2022-12-14T23:02:06.276Z,22.60
2022-12-14T23:04:33.570Z,23.35
2022-12-14T23:07:00.177Z,21.63
2022-12-14T23:09:45.550Z,22.77
2022-12-14T23:12:30.859Z,22.48
2022-12-14T23:15:16.440Z,23.15
2022-12-14T23:18:01.706Z,23.40
2022-12-14T23:20:46.958Z,22.08
2022-12-14T23:23:32.295Z,22.27
2022-12-14T23:26:25.362Z,19.77
2022-12-14T23:29:16.161Z,21.60
2022-12-14T23:35:11.003Z,20.52
2022-12-14T23:37:56.630Z,21.65
2022-12-14T23:40:47.266Z,22.13
2022-12-14T23:43:35.630Z,22.05
2022-12-14T23:46:23.309Z,22.20
2022-12-14T23:49:13.670Z,21.40
2022-12-14T23:52:01.016Z,21.40
2022-12-14T23:54:49.192Z,22.88
2022-12-14T23:57:34.877Z,22.07
